Positano Jet — IFTU — position and weather

sailwx.info

Track history (hours):
 
Tides and Currents Weather Stations Pressure Air Temp Water Temp Dewpoint Dewpoint Depression Visibility Wind Speed Wind Dir Waves Ship Positions

Positano Jet

Last reported at 2017-Jul-24 06:07 UTC. Time now 2017-Jul-24 08:43 UTC.
Position N 40°37' E 014°29'.

Length 23 m; draft 2 m.

Type: Ship. MMSI: 247160800.

Date/timePositionNaut miles runAvg speedWind from/ knotsBaromVisibWave heightAir tempDewpointWater temp
2017-Jul-24 06:07N 40°37' E 014°29'0 0.1
2017-Jul-24 06:00N 40°37' E 014°29'0 0.0
2017-Jul-23 18:30N 40°37' E 014°29'4 7.1
2017-Jul-23 18:00N 40°36' E 014°34'510.8
2017-Jul-23 17:30N 40°36' E 014°27'1011.8
2017-Jul-23 16:41N 40°33' E 014°14'317.3
2017-Jul-23 16:30N 40°34' E 014°18'917.6
2017-Jul-23 16:00N 40°38' E 014°29'1 1.1
2017-Jul-23 15:30N 40°37' E 014°30'0 0.0
2017-Jul-23 14:59N 40°37' E 014°30'0 0.0
2017-Jul-23 14:31N 40°37' E 014°30'1 2.0
2017-Jul-23 13:48N 40°37' E 014°28'619.4
2017-Jul-23 13:30N 40°34' E 014°22'2 1.7
2017-Jul-23 12:19N 40°35' E 014°24'3 1.0
2017-Jul-23 09:48N 40°36' E 014°27'2 0.1
2017-Jul-22 17:41N 40°38' E 014°29'315.2
2017-Jul-22 17:30N 40°36' E 014°26'8 8.5
2017-Jul-22 16:35N 40°34' E 014°17'220.4
2017-Jul-22 16:30N 40°34' E 014°19'912.9
2017-Jul-22 15:50N 40°36' E 014°30'0 0.2
2017-Jul-22 15:30N 40°36' E 014°30'0 0.5
2017-Jul-22 14:59N 40°37' E 014°30'1 0.9
2017-Jul-22 13:59N 40°37' E 014°29'714.2
2017-Jul-22 13:30N 40°34' E 014°21'4 4.3
2017-Jul-22 12:36N 40°34' E 014°16'220.5
2017-Jul-22 12:31N 40°34' E 014°19'916.4
2017-Jul-22 11:58N 40°38' E 014°29'0 0.5
2017-Jul-22 11:30N 40°37' E 014°29'0 0.0
2017-Jul-22 10:56N 40°37' E 014°29'2 1.6
2017-Jul-22 09:47N 40°36' E 014°27'621.4
2017-Jul-22 09:30N 40°34' E 014°20'3 5.7
2017-Jul-22 09:00N 40°34' E 014°16'9 0.6
2017-Jul-21 17:34N 40°36' E 014°28'121.0
2017-Jul-21 17:30N 40°36' E 014°26'8 8.6
2017-Jul-21 16:35N 40°34' E 014°16'220.0
2017-Jul-21 16:30N 40°34' E 014°18'918.5
2017-Jul-21 16:01N 40°38' E 014°29'1 1.1
2017-Jul-21 15:30N 40°37' E 014°30'0 0.0
2017-Jul-21 15:01N 40°37' E 014°30'0 0.0
2017-Jul-21 14:30N 40°37' E 014°30'1 1.1
2017-Jul-21 14:01N 40°38' E 014°29'713.4
2017-Jul-21 13:29N 40°34' E 014°21'5 7.0
2017-Jul-21 12:45N 40°33' E 014°14'314.0
2017-Jul-21 12:30N 40°34' E 014°19'916.2
2017-Jul-21 11:58N 40°38' E 014°29'1212.5
2017-Jul-21 10:59N 40°40' E 014°45'1212.6
2017-Jul-21 09:59N 40°37' E 014°29'916.7
2017-Jul-21 09:26N 40°34' E 014°18'4 6.5
2017-Jul-21 08:45N 40°35' E 014°23'521.4
2017-Jul-21 08:31N 40°37' E 014°29'3 2.3
2017-Jul-21 07:19N 40°36' E 014°32'3 7.4
2017-Jul-21 06:58N 40°37' E 014°29'0 0.0
2017-Jul-20 18:41N 40°37' E 014°29'1 5.9
2017-Jul-20 18:30N 40°37' E 014°30'4 1.8
2017-Jul-20 16:14N 40°35' E 014°25'4 1.6
2017-Jul-20 13:59N 40°37' E 014°29'714.0
2017-Jul-20 13:29N 40°34' E 014°21'4 4.2
2017-Jul-20 12:36N 40°34' E 014°16'819.6
2017-Jul-20 12:12N 40°36' E 014°26'315.1
2017-Jul-20 12:00N 40°38' E 014°29'0 0.5
2017-Jul-20 11:30N 40°37' E 014°29'0 0.1
2017-Jul-20 11:00N 40°37' E 014°29'0 0.0
2017-Jul-20 10:29N 40°37' E 014°29'0 0.6
2017-Jul-20 09:59N 40°38' E 014°29'918.3
2017-Jul-20 09:30N 40°34' E 014°19'3 4.0
2017-Jul-20 08:49N 40°34' E 014°22'4 0.3
2017-Jul-19 17:33N 40°36' E 014°27'4 3.7
2017-Jul-19 16:22N 40°34' E 014°22'4 1.5
2017-Jul-19 13:43N 40°36' E 014°27'419.4
2017-Jul-19 13:30N 40°34' E 014°22'4 4.6
2017-Jul-19 12:35N 40°34' E 014°16'219.7
2017-Jul-19 12:30N 40°34' E 014°18'918.0
2017-Jul-19 12:00N 40°38' E 014°29'0 0.1
2017-Jul-19 09:55N 40°37' E 014°29'1020.0
2017-Jul-19 09:25N 40°34' E 014°17'4 6.3
2017-Jul-19 08:50N 40°34' E 014°22'3 0.2
2017-Jul-18 17:30N 40°35' E 014°26'3 3.2
2017-Jul-18 16:24N 40°34' E 014°22'3 1.0
2017-Jul-18 13:36N 40°35' E 014°25'2 2.0
2017-Jul-18 12:22N 40°34' E 014°22'5 2.2
2017-Jul-18 09:55N 40°37' E 014°29'5 4.9
2017-Jul-18 08:48N 40°34' E 014°22'6 0.2
2017-Jul-17 09:53N 40°37' E 014°29'5 4.6
2017-Jul-17 08:45N 40°35' E 014°22'5 0.3
2017-Jul-16 17:36N 40°37' E 014°28'223.0
2017-Jul-16 17:30N 40°36' E 014°25'3 2.2
2017-Jul-16 16:20N 40°35' E 014°22'5 1.9
2017-Jul-16 13:45N 40°37' E 014°28'4 2.4
2017-Jul-16 12:15N 40°35' E 014°24'3 1.1
2017-Jul-16 09:51N 40°36' E 014°27'4 4.1
2017-Jul-16 08:50N 40°35' E 014°22'6 0.3
2017-Jul-15 15:10N 40°37' E 014°29'1 0.1
2017-Jul-14 13:42N 40°36' E 014°28'  
Track history (hours):
 
Tides and Currents Weather Stations Pressure Air Temp Water Temp Dewpoint Dewpoint Depression Visibility Wind Speed Wind Dir Waves Ship Positions

Positano Jet

Last reported at 2017-Jul-24 06:07 UTC. Time now 2017-Jul-24 08:43 UTC.
Position N 40°37' E 014°29'.

Length 23 m; draft 2 m.

Type: Ship. MMSI: 247160800.

Date/timePositionNaut miles runAvg speedWind from/ knotsBaromVisibWave heightAir tempDewpointWater temp
2017-Jul-24 06:07N 40°37' E 014°29'0 0.1
2017-Jul-24 06:00N 40°37' E 014°29'0 0.0
2017-Jul-23 18:30N 40°37' E 014°29'4 7.1
2017-Jul-23 18:00N 40°36' E 014°34'510.8
2017-Jul-23 17:30N 40°36' E 014°27'1011.8
2017-Jul-23 16:41N 40°33' E 014°14'317.3
2017-Jul-23 16:30N 40°34' E 014°18'917.6
2017-Jul-23 16:00N 40°38' E 014°29'1 1.1
2017-Jul-23 15:30N 40°37' E 014°30'0 0.0
2017-Jul-23 14:59N 40°37' E 014°30'0 0.0
2017-Jul-23 14:31N 40°37' E 014°30'1 2.0
2017-Jul-23 13:48N 40°37' E 014°28'619.4
2017-Jul-23 13:30N 40°34' E 014°22'2 1.7
2017-Jul-23 12:19N 40°35' E 014°24'3 1.0
2017-Jul-23 09:48N 40°36' E 014°27'2 0.1
2017-Jul-22 17:41N 40°38' E 014°29'315.2
2017-Jul-22 17:30N 40°36' E 014°26'8 8.5
2017-Jul-22 16:35N 40°34' E 014°17'220.4
2017-Jul-22 16:30N 40°34' E 014°19'912.9
2017-Jul-22 15:50N 40°36' E 014°30'0 0.2
2017-Jul-22 15:30N 40°36' E 014°30'0 0.5
2017-Jul-22 14:59N 40°37' E 014°30'1 0.9
2017-Jul-22 13:59N 40°37' E 014°29'714.2
2017-Jul-22 13:30N 40°34' E 014°21'4 4.3
2017-Jul-22 12:36N 40°34' E 014°16'220.5
2017-Jul-22 12:31N 40°34' E 014°19'916.4
2017-Jul-22 11:58N 40°38' E 014°29'0 0.5
2017-Jul-22 11:30N 40°37' E 014°29'0 0.0
2017-Jul-22 10:56N 40°37' E 014°29'2 1.6
2017-Jul-22 09:47N 40°36' E 014°27'621.4
2017-Jul-22 09:30N 40°34' E 014°20'3 5.7
2017-Jul-22 09:00N 40°34' E 014°16'9 0.6
2017-Jul-21 17:34N 40°36' E 014°28'121.0
2017-Jul-21 17:30N 40°36' E 014°26'8 8.6
2017-Jul-21 16:35N 40°34' E 014°16'220.0
2017-Jul-21 16:30N 40°34' E 014°18'918.5
2017-Jul-21 16:01N 40°38' E 014°29'1 1.1
2017-Jul-21 15:30N 40°37' E 014°30'0 0.0
2017-Jul-21 15:01N 40°37' E 014°30'0 0.0
2017-Jul-21 14:30N 40°37' E 014°30'1 1.1
2017-Jul-21 14:01N 40°38' E 014°29'713.4
2017-Jul-21 13:29N 40°34' E 014°21'5 7.0
2017-Jul-21 12:45N 40°33' E 014°14'314.0
2017-Jul-21 12:30N 40°34' E 014°19'916.2
2017-Jul-21 11:58N 40°38' E 014°29'1212.5
2017-Jul-21 10:59N 40°40' E 014°45'1212.6
2017-Jul-21 09:59N 40°37' E 014°29'916.7
2017-Jul-21 09:26N 40°34' E 014°18'4 6.5
2017-Jul-21 08:45N 40°35' E 014°23'521.4
2017-Jul-21 08:31N 40°37' E 014°29'3 2.3
2017-Jul-21 07:19N 40°36' E 014°32'3 7.4
2017-Jul-21 06:58N 40°37' E 014°29'0 0.0
2017-Jul-20 18:41N 40°37' E 014°29'1 5.9
2017-Jul-20 18:30N 40°37' E 014°30'4 1.8
2017-Jul-20 16:14N 40°35' E 014°25'4 1.6
2017-Jul-20 13:59N 40°37' E 014°29'714.0
2017-Jul-20 13:29N 40°34' E 014°21'4 4.2
2017-Jul-20 12:36N 40°34' E 014°16'819.6
2017-Jul-20 12:12N 40°36' E 014°26'315.1
2017-Jul-20 12:00N 40°38' E 014°29'0 0.5
2017-Jul-20 11:30N 40°37' E 014°29'0 0.1
2017-Jul-20 11:00N 40°37' E 014°29'0 0.0
2017-Jul-20 10:29N 40°37' E 014°29'0 0.6
2017-Jul-20 09:59N 40°38' E 014°29'918.3
2017-Jul-20 09:30N 40°34' E 014°19'3 4.0
2017-Jul-20 08:49N 40°34' E 014°22'4 0.3
2017-Jul-19 17:33N 40°36' E 014°27'4 3.7
2017-Jul-19 16:22N 40°34' E 014°22'4 1.5
2017-Jul-19 13:43N 40°36' E 014°27'419.4
2017-Jul-19 13:30N 40°34' E 014°22'4 4.6
2017-Jul-19 12:35N 40°34' E 014°16'219.7
2017-Jul-19 12:30N 40°34' E 014°18'918.0
2017-Jul-19 12:00N 40°38' E 014°29'0 0.1
2017-Jul-19 09:55N 40°37' E 014°29'1020.0
2017-Jul-19 09:25N 40°34' E 014°17'4 6.3
2017-Jul-19 08:50N 40°34' E 014°22'3 0.2
2017-Jul-18 17:30N 40°35' E 014°26'3 3.2
2017-Jul-18 16:24N 40°34' E 014°22'3 1.0
2017-Jul-18 13:36N 40°35' E 014°25'2 2.0
2017-Jul-18 12:22N 40°34' E 014°22'5 2.2
2017-Jul-18 09:55N 40°37' E 014°29'5 4.9
2017-Jul-18 08:48N 40°34' E 014°22'6 0.2
2017-Jul-17 09:53N 40°37' E 014°29'5 4.6
2017-Jul-17 08:45N 40°35' E 014°22'5 0.3
2017-Jul-16 17:36N 40°37' E 014°28'223.0
2017-Jul-16 17:30N 40°36' E 014°25'3 2.2
2017-Jul-16 16:20N 40°35' E 014°22'5 1.9
2017-Jul-16 13:45N 40°37' E 014°28'4 2.4
2017-Jul-16 12:15N 40°35' E 014°24'3 1.1
2017-Jul-16 09:51N 40°36' E 014°27'4 4.1
2017-Jul-16 08:50N 40°35' E 014°22'6 0.3
2017-Jul-15 15:10N 40°37' E 014°29'1 0.1
2017-Jul-14 13:42N 40°36' E 014°28'  

Dump ship's entire track history